Time;durP1;ratioP1;P1;durP2;ratioP2;P2;SDS_P1;SDS_P2;PMS_P1;PMS_P2;Temp;Humidity;BMP_temperature;BMP_pressure;BME280_temperature;BME280_humidity;BME280_pressure;Samples;Min_cycle;Max_cycle;Signal;HPM_P1;HPM_P2
2022/06/22 00:00:42;;;;;;;;;;;23.80;61.50;;;;;;6094755;23;19925;-80
2022/06/22 00:03:10;;;;;;;;;;;23.80;61.50;;;;;;6093589;23;19976;-80
2022/06/22 00:05:49;;;;;;;;;;;23.80;61.60;;;;;;6095049;23;19921;-79
2022/06/22 00:08:18;;;;;;;;;;;23.80;61.20;;;;;;6099149;23;19945;-79
2022/06/22 00:10:53;;;;;;;;;;;23.80;61.00;;;;;;6113068;23;19949;-79
2022/06/22 00:13:23;;;;;;;;;;;23.90;61.20;;;;;;6087181;23;20238;-79
2022/06/22 00:16:01;;;;;;;;;;;23.90;61.20;;;;;;6100640;23;19944;-79
2022/06/22 00:18:42;;;;;;;;;;;23.90;61.00;;;;;;6100240;23;19921;-79
2022/06/22 00:21:24;;;;;;;;;;;23.90;60.60;;;;;;6097801;23;19925;-79
2022/06/22 00:23:53;;;;;;;;;;;23.90;60.90;;;;;;6082003;23;19929;-78
2022/06/22 00:26:20;;;;;;;;;;;23.90;60.60;;;;;;6122597;23;19932;-79
2022/06/22 00:28:53;;;;;;;;;;;23.90;60.90;;;;;;6098470;23;19928;-79
2022/06/22 00:31:31;;;;;;;;;;;23.90;60.90;;;;;;6098851;23;19921;-79
2022/06/22 00:34:10;;;;;;;;;;;23.80;61.20;;;;;;6112678;23;19921;-78
2022/06/22 00:36:43;;;;;;;;;;;23.80;61.00;;;;;;6093525;23;19928;-79
2022/06/22 00:39:15;;;;;;;;;;;23.90;61.00;;;;;;6075895;23;19976;-79
2022/06/22 00:41:44;;;;;;;;;;;23.90;61.00;;;;;;6082077;23;19921;-78
2022/06/22 00:44:11;;;;;;;;;;;23.90;61.00;;;;;;6093683;23;19925;-79
2022/06/22 00:46:43;;;;;;;;;;;24.00;61.00;;;;;;6069367;23;19929;-79
2022/06/22 00:49:17;;;;;;;;;;;24.00;61.00;;;;;;6070311;23;19945;-78
2022/06/22 00:51:43;;;;;;;;;;;24.00;60.90;;;;;;6098836;23;20326;-79
2022/06/22 00:54:12;;;;;;;;;;;24.00;60.80;;;;;;6100822;23;20309;-79
2022/06/22 00:57:00;;;;;;;;;;;24.10;60.50;;;;;;6093532;23;20283;-79
2022/06/22 00:59:39;;;;;;;;;;;24.20;60.50;;;;;;6095244;23;19922;-79
2022/06/22 01:02:12;;;;;;;;;;;24.10;60.40;;;;;;6117829;23;19929;-79
2022/06/22 01:04:46;;;;;;;;;;;24.20;60.50;;;;;;6117162;23;19932;-79
2022/06/22 01:07:21;;;;;;;;;;;24.20;60.60;;;;;;6095634;23;19926;-78
2022/06/22 01:09:54;;;;;;;;;;;24.20;60.80;;;;;;6098607;23;19992;-78
2022/06/22 01:12:45;;;;;;;;;;;24.20;61.10;;;;;;6075224;23;19952;-79
2022/06/22 01:15:20;;;;;;;;;;;24.10;61.50;;;;;;6086670;23;19925;-79
2022/06/22 01:17:54;;;;;;;;;;;24.00;61.90;;;;;;6124197;23;19924;-78
2022/06/22 01:20:25;;;;;;;;;;;24.00;62.40;;;;;;6098567;23;19925;-80
2022/06/22 01:23:07;;;;;;;;;;;23.90;62.70;;;;;;6111818;23;19970;-79
2022/06/22 01:25:44;;;;;;;;;;;23.90;63.10;;;;;;6092739;23;19925;-79
2022/06/22 01:28:11;;;;;;;;;;;23.80;63.10;;;;;;6074001;23;20091;-79
2022/06/22 01:30:43;;;;;;;;;;;23.80;63.40;;;;;;6093769;23;20254;-81
2022/06/22 01:33:19;;;;;;;;;;;23.80;63.70;;;;;;6093383;23;20086;-80
2022/06/22 01:35:50;;;;;;;;;;;23.80;63.90;;;;;;6095119;23;19925;-79
2022/06/22 01:38:24;;;;;;;;;;;23.80;64.10;;;;;;6093229;23;20262;-79
2022/06/22 01:40:57;;;;;;;;;;;23.80;63.40;;;;;;6094004;23;19925;-78
2022/06/22 01:43:28;;;;;;;;;;;23.80;63.40;;;;;;6117362;23;20232;-80
2022/06/22 01:46:02;;;;;;;;;;;23.80;63.40;;;;;;6093322;23;19945;-80
2022/06/22 01:48:35;;;;;;;;;;;23.80;63.80;;;;;;6094380;23;20003;-80
2022/06/22 01:51:24;;;;;;;;;;;23.80;65.00;;;;;;6095086;23;19925;-79
2022/06/22 01:54:05;;;;;;;;;;;23.70;64.00;;;;;;6117525;23;20235;-79
2022/06/22 01:56:39;;;;;;;;;;;23.70;63.70;;;;;;6090519;23;20334;-79
2022/06/22 01:59:05;;;;;;;;;;;23.70;63.10;;;;;;6115147;23;19976;-79
2022/06/22 02:01:36;;;;;;;;;;;23.70;62.90;;;;;;6090570;23;19921;-79
2022/06/22 02:04:33;;;;;;;;;;;23.70;62.80;;;;;;6123964;23;19921;-78
2022/06/22 02:09:55;;;;;;;;;;;23.70;63.20;;;;;;6123332;23;20030;-79
2022/06/22 02:12:27;;;;;;;;;;;23.70;64.10;;;;;;6112496;23;19921;-80
2022/06/22 02:15:02;;;;;;;;;;;23.70;63.70;;;;;;6122082;23;19921;-80
2022/06/22 02:17:32;;;;;;;;;;;23.80;63.00;;;;;;6112464;23;19925;-80
2022/06/22 02:20:17;;;;;;;;;;;23.70;62.50;;;;;;6097201;23;20001;-79
2022/06/22 02:22:47;;;;;;;;;;;23.70;62.80;;;;;;6098543;23;19948;-79
2022/06/22 02:25:14;;;;;;;;;;;23.70;62.90;;;;;;6117155;23;19972;-79
2022/06/22 02:27:41;;;;;;;;;;;23.70;62.70;;;;;;6095598;23;20318;-79
2022/06/22 02:30:08;;;;;;;;;;;23.70;62.60;;;;;;6118726;23;19921;-80
2022/06/22 02:32:37;;;;;;;;;;;23.70;62.60;;;;;;6095005;23;19921;-79
2022/06/22 02:35:06;;;;;;;;;;;23.70;62.70;;;;;;6111282;23;19929;-80
2022/06/22 02:37:34;;;;;;;;;;;23.70;62.90;;;;;;6113508;23;19922;-79
2022/06/22 02:40:03;;;;;;;;;;;23.70;63.20;;;;;;6099153;23;20007;-79
2022/06/22 02:45:17;;;;;;;;;;;23.60;63.40;;;;;;6125032;23;19925;-79
2022/06/22 02:47:44;;;;;;;;;;;23.60;63.90;;;;;;6100395;23;19925;-79
2022/06/22 02:50:24;;;;;;;;;;;23.50;63.90;;;;;;6083086;23;19949;-78
2022/06/22 02:52:57;;;;;;;;;;;23.50;63.70;;;;;;6094494;23;19976;-80
2022/06/22 02:55:26;;;;;;;;;;;23.50;63.60;;;;;;6096834;23;19925;-80
2022/06/22 02:57:53;;;;;;;;;;;23.50;63.90;;;;;;6094079;23;19921;-79
2022/06/22 03:00:22;;;;;;;;;;;23.40;64.00;;;;;;6095245;23;19921;-78
2022/06/22 03:02:50;;;;;;;;;;;23.40;64.50;;;;;;6095239;23;19921;-79
2022/06/22 03:05:18;;;;;;;;;;;23.40;65.10;;;;;;6099381;23;20249;-79
2022/06/22 03:07:49;;;;;;;;;;;23.30;65.10;;;;;;6113989;23;20310;-79
2022/06/22 03:10:22;;;;;;;;;;;23.30;65.10;;;;;;6098595;23;19928;-79
2022/06/22 03:12:49;;;;;;;;;;;23.30;65.40;;;;;;6112983;23;19922;-80
2022/06/22 03:15:19;;;;;;;;;;;23.30;66.30;;;;;;6098638;23;19988;-79
2022/06/22 03:17:46;;;;;;;;;;;23.30;67.10;;;;;;6100965;23;19992;-79
2022/06/22 03:20:15;;;;;;;;;;;23.20;67.50;;;;;;6110079;23;19921;-78
2022/06/22 03:22:43;;;;;;;;;;;23.20;67.80;;;;;;6114744;23;19956;-78
2022/06/22 03:25:15;;;;;;;;;;;23.20;67.80;;;;;;6081621;23;19925;-79
2022/06/22 03:27:44;;;;;;;;;;;23.20;68.50;;;;;;6070824;23;19921;-78
2022/06/22 03:30:16;;;;;;;;;;;23.20;69.70;;;;;;6122652;23;19931;-79
2022/06/22 03:33:00;;;;;;;;;;;23.20;69.80;;;;;;6113009;23;19921;-78
2022/06/22 03:35:31;;;;;;;;;;;23.20;69.50;;;;;;6098569;23;19921;-79
2022/06/22 03:38:01;;;;;;;;;;;23.20;69.90;;;;;;6112888;23;19921;-79
2022/06/22 03:40:31;;;;;;;;;;;23.10;69.60;;;;;;6098761;23;19921;-79
2022/06/22 03:43:02;;;;;;;;;;;23.10;69.50;;;;;;6098954;23;20223;-79
2022/06/22 03:45:39;;;;;;;;;;;23.10;69.40;;;;;;6070467;23;19976;-79
2022/06/22 03:48:10;;;;;;;;;;;23.10;69.50;;;;;;6093623;23;19926;-81
2022/06/22 03:50:41;;;;;;;;;;;23.10;70.10;;;;;;6095132;23;20250;-78
2022/06/22 03:53:15;;;;;;;;;;;23.00;71.10;;;;;;6093792;23;19936;-79
2022/06/22 03:55:46;;;;;;;;;;;23.00;70.70;;;;;;6070437;23;19982;-79
2022/06/22 03:58:14;;;;;;;;;;;23.10;71.20;;;;;;6093937;23;19925;-79
2022/06/22 04:00:42;;;;;;;;;;;23.00;73.30;;;;;;6094781;23;19947;-79
2022/06/22 04:03:10;;;;;;;;;;;22.90;74.30;;;;;;6070028;23;19925;-78
2022/06/22 04:05:42;;;;;;;;;;;22.80;74.60;;;;;;6094770;23;19921;-79
2022/06/22 04:08:19;;;;;;;;;;;22.80;75.30;;;;;;6093638;23;19964;-79
2022/06/22 04:10:53;;;;;;;;;;;22.80;75.80;;;;;;6070800;23;19921;-79
2022/06/22 04:13:23;;;;;;;;;;;22.70;76.30;;;;;;6093255;23;19933;-78
2022/06/22 04:15:50;;;;;;;;;;;22.70;76.10;;;;;;6094561;23;19988;-79
2022/06/22 04:18:39;;;;;;;;;;;22.60;76.30;;;;;;6117558;23;19972;-80
2022/06/22 04:21:10;;;;;;;;;;;22.60;76.20;;;;;;6094818;23;19929;-79
2022/06/22 04:23:42;;;;;;;;;;;22.50;76.10;;;;;;6123044;23;19921;-79
2022/06/22 04:26:15;;;;;;;;;;;22.50;75.20;;;;;;6112565;23;19929;-79
2022/06/22 04:28:44;;;;;;;;;;;22.50;74.90;;;;;;6098401;23;19971;-79
2022/06/22 04:31:15;;;;;;;;;;;22.50;74.80;;;;;;6124700;23;19921;-79
2022/06/22 04:33:44;;;;;;;;;;;22.50;74.90;;;;;;6122817;23;19927;-79
2022/06/22 04:36:24;;;;;;;;;;;22.50;75.10;;;;;;6112740;23;19984;-79
2022/06/22 04:38:58;;;;;;;;;;;22.50;75.50;;;;;;6112160;23;19971;-79
2022/06/22 04:41:27;;;;;;;;;;;22.50;75.80;;;;;;6098886;23;20018;-80
2022/06/22 04:43:56;;;;;;;;;;;22.50;75.80;;;;;;6122736;23;20331;-79
2022/06/22 04:46:33;;;;;;;;;;;22.50;75.10;;;;;;6099068;23;19925;-78
2022/06/22 04:49:02;;;;;;;;;;;22.50;75.10;;;;;;6122641;23;20405;-80
2022/06/22 04:51:33;;;;;;;;;;;22.60;75.20;;;;;;6100459;23;19921;-79
2022/06/22 04:54:18;;;;;;;;;;;22.60;74.80;;;;;;6110642;23;19925;-79
2022/06/22 04:56:47;;;;;;;;;;;22.60;74.50;;;;;;6098112;23;19921;-78
2022/06/22 04:59:15;;;;;;;;;;;22.60;74.40;;;;;;6115579;23;19921;-80
2022/06/22 05:02:04;;;;;;;;;;;22.60;74.40;;;;;;6093696;23;19921;-79
2022/06/22 05:04:36;;;;;;;;;;;22.60;74.50;;;;;;6097374;23;20255;-79
2022/06/22 05:07:06;;;;;;;;;;;22.60;74.80;;;;;;6086478;23;20010;-78
2022/06/22 05:09:51;;;;;;;;;;;22.50;75.10;;;;;;6098794;23;19929;-79
2022/06/22 05:12:20;;;;;;;;;;;22.50;75.30;;;;;;6098090;23;19951;-79
2022/06/22 05:14:48;;;;;;;;;;;22.50;76.80;;;;;;6112214;23;20343;-79
2022/06/22 05:17:20;;;;;;;;;;;22.50;76.80;;;;;;6096804;23;20377;-79
2022/06/22 05:20:07;;;;;;;;;;;22.50;78.10;;;;;;6124768;23;20235;-79
2022/06/22 05:22:34;;;;;;;;;;;22.40;77.40;;;;;;6074490;23;19996;-79
2022/06/22 05:25:02;;;;;;;;;;;22.40;78.20;;;;;;6112812;23;19984;-79
2022/06/22 05:27:33;;;;;;;;;;;22.30;78.90;;;;;;6096965;23;20203;-80
2022/06/22 05:30:07;;;;;;;;;;;22.20;79.60;;;;;;6113771;23;19972;-82
2022/06/22 05:32:38;;;;;;;;;;;22.10;81.30;;;;;;6097288;23;19933;-79
2022/06/22 05:35:14;;;;;;;;;;;21.90;83.10;;;;;;6110175;23;19921;-79
2022/06/22 05:37:45;;;;;;;;;;;21.70;85.80;;;;;;6122726;23;19996;-79
2022/06/22 05:40:13;;;;;;;;;;;21.60;87.50;;;;;;6110666;23;19941;-80
2022/06/22 05:42:40;;;;;;;;;;;21.50;88.70;;;;;;6097440;23;19921;-80
2022/06/22 05:45:12;;;;;;;;;;;21.40;88.40;;;;;;6112278;23;19975;-79
2022/06/22 05:47:39;;;;;;;;;;;21.30;85.90;;;;;;6097338;23;20342;-80
2022/06/22 05:50:15;;;;;;;;;;;21.20;85.70;;;;;;6100703;23;19933;-79
2022/06/22 05:53:05;;;;;;;;;;;21.10;86.10;;;;;;6123944;23;19921;-79
2022/06/22 05:55:56;;;;;;;;;;;21.10;86.70;;;;;;6079467;23;19952;-80
2022/06/22 05:58:32;;;;;;;;;;;21.00;87.30;;;;;;6123120;23;19928;-80
2022/06/22 06:01:00;;;;;;;;;;;21.00;88.30;;;;;;6124572;23;20325;-80
2022/06/22 06:03:30;;;;;;;;;;;21.00;89.00;;;;;;6096176;23;19921;-80
2022/06/22 06:06:17;;;;;;;;;;;21.00;88.50;;;;;;6117694;23;19972;-80
2022/06/22 06:08:49;;;;;;;;;;;21.00;89.20;;;;;;6073819;23;19988;-80
2022/06/22 06:11:18;;;;;;;;;;;21.00;89.60;;;;;;6111159;23;19921;-79
2022/06/22 06:13:58;;;;;;;;;;;21.00;90.10;;;;;;6086057;23;19987;-80
2022/06/22 06:16:27;;;;;;;;;;;21.00;89.90;;;;;;6109361;23;19921;-80
2022/06/22 06:18:58;;;;;;;;;;;21.00;90.00;;;;;;6116223;23;19928;-80
2022/06/22 06:21:28;;;;;;;;;;;21.00;90.30;;;;;;6094160;23;19921;-80
2022/06/22 06:24:00;;;;;;;;;;;21.00;90.30;;;;;;6116367;23;19922;-81
2022/06/22 06:29:28;;;;;;;;;;;21.10;90.40;;;;;;6117733;23;19928;-80
2022/06/22 06:32:13;;;;;;;;;;;21.10;90.60;;;;;;6104816;23;20393;-80
2022/06/22 06:34:51;;;;;;;;;;;21.20;90.70;;;;;;6117257;23;20231;-80
2022/06/22 06:37:21;;;;;;;;;;;21.20;90.50;;;;;;6093661;23;19921;-80
2022/06/22 06:39:51;;;;;;;;;;;21.30;90.60;;;;;;6092759;23;20071;-80
2022/06/22 06:42:26;;;;;;;;;;;21.30;90.40;;;;;;6093405;23;20332;-80
2022/06/22 06:44:54;;;;;;;;;;;21.30;90.60;;;;;;6093183;23;19922;-80
2022/06/22 06:47:25;;;;;;;;;;;21.30;90.60;;;;;;6093533;23;19925;-80
2022/06/22 06:50:06;;;;;;;;;;;21.30;90.70;;;;;;6093019;23;20000;-80
2022/06/22 06:52:42;;;;;;;;;;;21.30;90.70;;;;;;6116902;23;19921;-81
2022/06/22 06:55:19;;;;;;;;;;;21.30;90.80;;;;;;6117530;23;19921;-82
2022/06/22 06:57:59;;;;;;;;;;;21.30;90.90;;;;;;6092982;23;19925;-81
2022/06/22 07:00:27;;;;;;;;;;;21.30;90.70;;;;;;6092550;23;20294;-82
2022/06/22 07:02:55;;;;;;;;;;;21.30;90.70;;;;;;6092907;23;19945;-80
2022/06/22 07:05:24;;;;;;;;;;;21.30;90.40;;;;;;6093445;23;19925;-81
2022/06/22 07:07:53;;;;;;;;;;;21.30;90.40;;;;;;6092939;23;19968;-82
2022/06/22 07:10:31;;;;;;;;;;;21.20;90.50;;;;;;6119223;23;19980;-81
2022/06/22 07:13:00;;;;;;;;;;;21.20;90.60;;;;;;6099479;23;19921;-81
2022/06/22 07:15:33;;;;;;;;;;;21.10;90.40;;;;;;6077896;23;20236;-81
2022/06/22 07:18:03;;;;;;;;;;;21.10;90.40;;;;;;6087751;23;19921;-81
2022/06/22 07:20:33;;;;;;;;;;;21.00;90.70;;;;;;6113302;23;20295;-81
2022/06/22 07:23:04;;;;;;;;;;;21.00;91.00;;;;;;6094164;23;19922;-81
2022/06/22 07:25:53;;;;;;;;;;;21.00;90.90;;;;;;6077045;23;19928;-80
2022/06/22 07:28:25;;;;;;;;;;;21.00;90.90;;;;;;6099637;23;20337;-82
2022/06/22 07:30:52;;;;;;;;;;;21.00;91.00;;;;;;6113469;23;20142;-82
2022/06/22 07:33:32;;;;;;;;;;;21.00;91.00;;;;;;6098394;23;19992;-81
2022/06/22 07:36:03;;;;;;;;;;;21.00;90.80;;;;;;6111660;23;19929;-82
2022/06/22 07:38:40;;;;;;;;;;;21.00;91.00;;;;;;6117304;23;20231;-81
2022/06/22 07:41:19;;;;;;;;;;;21.00;91.40;;;;;;6096259;23;19921;-81
2022/06/22 07:43:58;;;;;;;;;;;21.00;91.40;;;;;;6114398;23;19921;-80
2022/06/22 07:46:44;;;;;;;;;;;20.90;91.30;;;;;;6070403;23;19974;-80
2022/06/22 07:49:21;;;;;;;;;;;20.90;91.20;;;;;;6118503;23;20428;-80
2022/06/22 07:51:49;;;;;;;;;;;20.90;91.20;;;;;;6094785;23;19928;-80
2022/06/22 07:54:20;;;;;;;;;;;20.90;90.70;;;;;;6094206;23;19921;-80
2022/06/22 07:56:54;;;;;;;;;;;20.90;90.00;;;;;;6094620;23;19928;-80
2022/06/22 07:59:29;;;;;;;;;;;20.90;89.80;;;;;;6094206;23;28186;-81
2022/06/22 08:02:04;;;;;;;;;;;20.90;89.30;;;;;;6095289;23;19932;-82
2022/06/22 08:04:34;;;;;;;;;;;21.00;89.50;;;;;;6096338;23;19928;-82
2022/06/22 08:07:16;;;;;;;;;;;20.90;89.90;;;;;;6094700;23;19929;-82
2022/06/22 08:09:46;;;;;;;;;;;20.90;90.00;;;;;;6069857;23;19922;-81
2022/06/22 08:12:23;;;;;;;;;;;20.90;90.00;;;;;;6094696;23;19925;-83
2022/06/22 08:14:53;;;;;;;;;;;20.90;90.50;;;;;;6124756;23;19924;-84
2022/06/22 08:17:38;;;;;;;;;;;21.00;90.40;;;;;;6112585;23;19921;-84
2022/06/22 08:20:06;;;;;;;;;;;21.00;90.40;;;;;;6084407;23;19921;-83
2022/06/22 08:22:32;;;;;;;;;;;21.00;90.50;;;;;;6089413;23;20346;-82
2022/06/22 08:25:02;;;;;;;;;;;21.10;90.70;;;;;;6069598;23;19968;-82
2022/06/22 08:27:29;;;;;;;;;;;21.10;91.40;;;;;;6095983;23;19921;-82
2022/06/22 08:29:56;;;;;;;;;;;21.20;91.60;;;;;;6093778;23;20255;-82
2022/06/22 08:32:23;;;;;;;;;;;21.30;91.40;;;;;;6094690;23;19973;-82
2022/06/22 08:35:04;;;;;;;;;;;21.30;91.50;;;;;;6117523;23;20397;-82
2022/06/22 08:37:46;;;;;;;;;;;21.40;91.30;;;;;;6094517;23;20358;-81
2022/06/22 08:40:13;;;;;;;;;;;21.50;91.10;;;;;;6098081;23;20765;-82
2022/06/22 08:42:40;;;;;;;;;;;21.50;91.10;;;;;;6099490;23;19921;-82
2022/06/22 08:45:13;;;;;;;;;;;21.60;91.10;;;;;;6098222;23;19921;-80
2022/06/22 08:47:43;;;;;;;;;;;21.60;90.80;;;;;;6112987;23;19973;-80
2022/06/22 08:50:10;;;;;;;;;;;21.60;90.50;;;;;;6096925;23;19920;-80
2022/06/22 08:52:45;;;;;;;;;;;21.70;90.40;;;;;;6099369;23;19979;-80
2022/06/22 08:55:50;;;;;;;;;;;21.70;90.50;;;;;;6122758;23;19920;-80
2022/06/22 08:58:21;;;;;;;;;;;21.70;90.30;;;;;;6123891;23;19943;-80
2022/06/22 09:00:57;;;;;;;;;;;21.70;90.20;;;;;;6100720;23;19921;-81
2022/06/22 09:03:32;;;;;;;;;;;21.80;90.30;;;;;;6098325;23;19925;-81
2022/06/22 09:06:11;;;;;;;;;;;21.80;90.20;;;;;;6099598;23;20298;-79
2022/06/22 09:08:56;;;;;;;;;;;21.70;90.30;;;;;;6122580;23;19924;-79
2022/06/22 09:11:46;;;;;;;;;;;21.70;90.40;;;;;;6098109;23;19929;-79
2022/06/22 09:14:15;;;;;;;;;;;21.70;90.30;;;;;;6106818;23;19983;-81
2022/06/22 09:16:58;;;;;;;;;;;21.70;90.10;;;;;;6098282;23;20302;-80
2022/06/22 09:19:25;;;;;;;;;;;21.60;90.00;;;;;;6110229;23;20342;-79
2022/06/22 09:21:55;;;;;;;;;;;21.60;89.60;;;;;;6099022;23;20329;-81
2022/06/22 09:24:27;;;;;;;;;;;21.50;89.70;;;;;;6097931;23;19921;-82
2022/06/22 09:27:03;;;;;;;;;;;21.50;90.00;;;;;;6115813;23;20251;-79
2022/06/22 09:29:39;;;;;;;;;;;21.50;90.00;;;;;;6095503;23;20257;-80
2022/06/22 09:32:26;;;;;;;;;;;21.50;90.00;;;;;;6113717;23;19925;-80
2022/06/22 09:35:11;;;;;;;;;;;21.50;90.40;;;;;;6122665;23;19921;-80
2022/06/22 09:37:58;;;;;;;;;;;21.50;90.60;;;;;;6110349;23;19925;-79
2022/06/22 09:40:57;;;;;;;;;;;21.50;90.40;;;;;;6064077;23;19921;-80
2022/06/22 09:43:42;;;;;;;;;;;21.50;90.40;;;;;;6090062;23;19955;-80
2022/06/22 09:46:28;;;;;;;;;;;21.60;90.30;;;;;;6097328;23;19924;-80
2022/06/22 09:49:10;;;;;;;;;;;21.60;90.10;;;;;;6098701;23;19921;-81
2022/06/22 09:51:47;;;;;;;;;;;21.60;90.00;;;;;;6124124;23;19925;-81
2022/06/22 09:57:31;;;;;;;;;;;21.60;90.20;;;;;;6122928;23;19924;-83
2022/06/22 09:59:59;;;;;;;;;;;21.60;90.40;;;;;;6114174;23;19962;-82
2022/06/22 10:02:44;;;;;;;;;;;21.50;90.80;;;;;;6120922;23;19971;-82
2022/06/22 10:05:30;;;;;;;;;;;21.50;90.80;;;;;;6098737;23;19936;-81
2022/06/22 10:07:57;;;;;;;;;;;21.60;91.00;;;;;;6097894;23;19921;-81
2022/06/22 10:10:34;;;;;;;;;;;21.60;90.90;;;;;;6098691;23;19932;-81
2022/06/22 10:13:20;;;;;;;;;;;21.70;91.10;;;;;;6105067;23;19926;-80
2022/06/22 10:15:47;;;;;;;;;;;21.70;90.60;;;;;;6116904;23;20309;-80
2022/06/22 10:18:21;;;;;;;;;;;21.70;90.30;;;;;;6117598;23;19953;-80
2022/06/22 10:20:51;;;;;;;;;;;21.60;90.10;;;;;;6069087;23;19968;-80
2022/06/22 10:23:30;;;;;;;;;;;21.60;89.70;;;;;;6117960;23;20231;-80
2022/06/22 10:26:15;;;;;;;;;;;21.60;89.40;;;;;;6116456;23;19933;-80
2022/06/22 10:28:45;;;;;;;;;;;21.70;89.00;;;;;;6093828;23;19966;-79
2022/06/22 10:31:23;;;;;;;;;;;21.70;88.80;;;;;;6095264;23;19925;-80
2022/06/22 10:33:56;;;;;;;;;;;21.70;88.80;;;;;;6092650;23;20327;-80
2022/06/22 10:36:43;;;;;;;;;;;21.80;88.50;;;;;;6117462;23;19922;-80
2022/06/22 10:39:37;;;;;;;;;;;21.80;88.40;;;;;;6092967;23;19921;-80
2022/06/22 10:45:09;;;;;;;;;;;22.00;88.20;;;;;;6095333;23;19921;-80
2022/06/22 10:47:55;;;;;;;;;;;22.00;88.20;;;;;;6071598;23;19995;-80
2022/06/22 10:50:28;;;;;;;;;;;22.10;88.30;;;;;;6099911;23;19928;-81
2022/06/22 10:53:32;;;;;;;;;;;22.20;88.20;;;;;;6098413;23;19921;-80
2022/06/22 10:56:17;;;;;;;;;;;22.30;88.10;;;;;;6094608;23;19925;-80
2022/06/22 10:58:53;;;;;;;;;;;22.30;87.00;;;;;;6119793;23;20302;-80
2022/06/22 11:01:22;;;;;;;;;;;22.40;86.60;;;;;;6118632;23;20338;-80
2022/06/22 11:03:49;;;;;;;;;;;22.50;85.90;;;;;;6118958;23;20226;-80
2022/06/22 11:06:34;;;;;;;;;;;22.60;85.50;;;;;;6118276;23;19976;-80
2022/06/22 11:09:07;;;;;;;;;;;22.70;84.90;;;;;;6095768;23;19921;-80
2022/06/22 11:11:50;;;;;;;;;;;22.70;84.40;;;;;;6095552;23;19928;-80
2022/06/22 11:14:35;;;;;;;;;;;22.80;83.40;;;;;;6070762;23;19936;-80
2022/06/22 11:17:05;;;;;;;;;;;22.80;82.40;;;;;;6095553;23;19928;-81
2022/06/22 11:19:38;;;;;;;;;;;22.90;82.30;;;;;;6119616;23;19921;-80
2022/06/22 11:22:08;;;;;;;;;;;22.90;82.20;;;;;;6118560;23;19921;-79
2022/06/22 11:24:50;;;;;;;;;;;23.00;82.20;;;;;;6096808;23;19976;-80
2022/06/22 11:33:17;;;;;;;;;;;23.00;81.70;;;;;;6096095;23;19925;-80
2022/06/22 11:35:52;;;;;;;;;;;23.00;82.00;;;;;;6119279;23;19925;-80
2022/06/22 11:38:21;;;;;;;;;;;23.00;83.70;;;;;;6094562;23;19929;-80
2022/06/22 11:40:55;;;;;;;;;;;23.00;84.50;;;;;;6118892;23;19933;-80
2022/06/22 11:43:25;;;;;;;;;;;23.00;84.10;;;;;;6118841;23;19921;-79
2022/06/22 11:45:58;;;;;;;;;;;23.00;84.20;;;;;;6118896;23;19925;-80
2022/06/22 11:48:28;;;;;;;;;;;23.10;84.10;;;;;;6094752;23;20012;-80
2022/06/22 11:50:56;;;;;;;;;;;23.20;83.90;;;;;;6119828;23;19921;-80
2022/06/22 11:53:41;;;;;;;;;;;23.30;83.80;;;;;;6118586;23;19953;-80
2022/06/22 11:56:22;;;;;;;;;;;23.40;82.90;;;;;;6118431;23;19921;-79
2022/06/22 11:59:07;;;;;;;;;;;23.40;80.90;;;;;;6070866;23;19932;-79
2022/06/22 12:01:34;;;;;;;;;;;23.50;80.80;;;;;;6097547;23;20310;-79
2022/06/22 12:04:01;;;;;;;;;;;23.60;80.20;;;;;;6085415;23;20376;-80
2022/06/22 12:06:45;;;;;;;;;;;23.70;79.60;;;;;;6071588;23;19921;-79
2022/06/22 12:09:21;;;;;;;;;;;23.80;78.90;;;;;;6094369;23;19980;-81
2022/06/22 12:12:04;;;;;;;;;;;24.10;78.30;;;;;;6097160;23;19921;-79
2022/06/22 12:17:54;;;;;;;;;;;24.60;76.10;;;;;;6094971;23;20307;-79
2022/06/22 12:20:27;;;;;;;;;;;25.00;74.30;;;;;;6066595;23;19922;-79
2022/06/22 12:22:59;;;;;;;;;;;25.30;71.10;;;;;;6093180;23;20384;-79
2022/06/22 12:25:54;;;;;;;;;;;25.50;68.60;;;;;;6070386;23;19929;-79
2022/06/22 12:28:33;;;;;;;;;;;25.50;67.20;;;;;;6076014;23;19921;-79
2022/06/22 12:31:12;;;;;;;;;;;25.50;66.80;;;;;;6124386;23;19921;-79
2022/06/22 12:33:59;;;;;;;;;;;25.50;66.70;;;;;;6100879;23;19921;-79
2022/06/22 12:36:29;;;;;;;;;;;25.60;67.90;;;;;;6075323;23;20400;-79
2022/06/22 12:39:15;;;;;;;;;;;25.60;67.30;;;;;;6112271;23;19921;-79
2022/06/22 12:41:54;;;;;;;;;;;25.60;67.20;;;;;;6118017;23;19921;-80
2022/06/22 12:44:29;;;;;;;;;;;25.60;67.50;;;;;;6089700;23;19925;-79
2022/06/22 12:47:11;;;;;;;;;;;25.70;68.40;;;;;;6124510;23;19925;-79
2022/06/22 12:49:39;;;;;;;;;;;25.70;68.40;;;;;;6098054;23;19925;-78
2022/06/22 12:52:06;;;;;;;;;;;25.70;68.60;;;;;;6124092;23;19932;-79
2022/06/22 12:54:39;;;;;;;;;;;25.80;68.50;;;;;;6097671;23;19921;-78
2022/06/22 12:57:14;;;;;;;;;;;25.90;68.00;;;;;;6124593;23;19921;-79
2022/06/22 12:59:47;;;;;;;;;;;25.90;67.00;;;;;;6109594;23;19921;-78
2022/06/22 13:02:16;;;;;;;;;;;25.90;67.00;;;;;;6111216;23;19936;-79
2022/06/22 13:04:44;;;;;;;;;;;25.90;66.90;;;;;;6097677;23;19928;-79
2022/06/22 13:07:12;;;;;;;;;;;25.90;66.60;;;;;;6098012;23;19921;-78
2022/06/22 13:09:39;;;;;;;;;;;25.80;66.20;;;;;;6093052;23;19925;-80
2022/06/22 13:12:22;;;;;;;;;;;25.70;66.80;;;;;;6093724;23;19992;-79
2022/06/22 13:14:55;;;;;;;;;;;25.70;66.70;;;;;;6097742;23;19925;-79
2022/06/22 13:17:29;;;;;;;;;;;25.70;67.00;;;;;;6074704;23;19977;-80
2022/06/22 13:20:19;;;;;;;;;;;25.80;66.60;;;;;;6092878;23;19921;-79
2022/06/22 13:22:48;;;;;;;;;;;25.80;65.70;;;;;;6090459;23;19921;-79
2022/06/22 13:25:35;;;;;;;;;;;25.80;66.20;;;;;;6098702;23;20298;-79
2022/06/22 13:28:10;;;;;;;;;;;25.80;66.40;;;;;;6069407;23;19921;-79
2022/06/22 13:30:47;;;;;;;;;;;25.80;65.80;;;;;;6087603;23;19930;-80
2022/06/22 13:33:26;;;;;;;;;;;25.90;65.90;;;;;;6115141;23;19921;-79
2022/06/22 13:36:13;;;;;;;;;;;25.90;65.10;;;;;;6094081;23;19977;-79
2022/06/22 13:38:42;;;;;;;;;;;25.80;65.10;;;;;;6026485;23;19925;-80
2022/06/22 13:41:35;;;;;;;;;;;25.90;65.10;;;;;;6098617;23;19976;-80
2022/06/22 13:44:27;;;;;;;;;;;25.90;64.60;;;;;;6116388;23;20227;-79
2022/06/22 13:46:55;;;;;;;;;;;25.80;65.20;;;;;;6093772;23;19925;-79
2022/06/22 13:49:41;;;;;;;;;;;25.80;64.70;;;;;;6094205;23;19951;-79
2022/06/22 13:52:16;;;;;;;;;;;25.70;65.00;;;;;;6097430;23;19921;-79
2022/06/22 13:55:09;;;;;;;;;;;25.70;66.50;;;;;;6100293;23;19928;-80
2022/06/22 13:57:59;;;;;;;;;;;25.60;66.10;;;;;;6123461;23;19948;-80
2022/06/22 14:00:32;;;;;;;;;;;25.50;66.30;;;;;;6080382;23;20258;-80
2022/06/22 14:03:14;;;;;;;;;;;25.40;66.20;;;;;;6113352;23;20343;-79
2022/06/22 14:05:46;;;;;;;;;;;25.40;66.20;;;;;;6097612;23;19921;-80
2022/06/22 14:08:21;;;;;;;;;;;25.30;66.70;;;;;;6109593;23;19972;-80
2022/06/22 14:10:57;;;;;;;;;;;25.30;67.20;;;;;;6122789;23;20204;-79
2022/06/22 14:13:56;;;;;;;;;;;25.20;68.30;;;;;;6109521;23;20109;-80
2022/06/22 14:16:27;;;;;;;;;;;25.10;68.10;;;;;;6044917;23;19925;-80
2022/06/22 14:18:59;;;;;;;;;;;25.10;67.90;;;;;;6098771;23;19976;-79
2022/06/22 14:21:29;;;;;;;;;;;25.10;67.70;;;;;;6100713;23;20239;-79
2022/06/22 14:23:56;;;;;;;;;;;25.10;67.80;;;;;;6099744;23;19927;-79
2022/06/22 14:26:35;;;;;;;;;;;25.10;68.30;;;;;;6114288;23;20310;-79
2022/06/22 14:29:07;;;;;;;;;;;25.10;68.50;;;;;;6087403;23;19975;-79
2022/06/22 14:31:37;;;;;;;;;;;25.10;68.90;;;;;;6113154;23;19976;-79
2022/06/22 14:34:04;;;;;;;;;;;25.10;68.50;;;;;;6070495;23;20306;-80
2022/06/22 14:36:55;;;;;;;;;;;25.10;68.30;;;;;;6114538;23;20000;-80
2022/06/22 14:39:31;;;;;;;;;;;25.00;68.20;;;;;;6095399;23;20008;-79
2022/06/22 14:42:04;;;;;;;;;;;25.00;68.30;;;;;;6094437;23;19976;-80
2022/06/22 14:44:40;;;;;;;;;;;24.90;68.40;;;;;;6119645;23;19928;-79
2022/06/22 14:47:12;;;;;;;;;;;24.90;68.70;;;;;;6093629;23;19944;-79
2022/06/22 14:49:47;;;;;;;;;;;24.90;69.50;;;;;;6094625;23;19976;-79
2022/06/22 14:52:21;;;;;;;;;;;24.80;70.30;;;;;;6096222;23;20291;-79
2022/06/22 14:54:57;;;;;;;;;;;24.70;71.70;;;;;;6094898;23;19959;-79
2022/06/22 14:57:29;;;;;;;;;;;24.60;72.20;;;;;;6095495;23;19936;-80
2022/06/22 15:00:05;;;;;;;;;;;24.50;72.50;;;;;;6070908;23;19925;-81
2022/06/22 15:02:38;;;;;;;;;;;24.40;74.40;;;;;;6119782;23;19949;-81
2022/06/22 15:05:09;;;;;;;;;;;24.30;74.70;;;;;;6118690;23;19977;-82
2022/06/22 15:07:41;;;;;;;;;;;24.20;75.20;;;;;;6094841;23;20000;-83
2022/06/22 15:10:16;;;;;;;;;;;24.20;75.50;;;;;;6094874;23;20306;-83
2022/06/22 15:12:58;;;;;;;;;;;24.10;75.30;;;;;;6095276;23;20262;-82
2022/06/22 15:15:48;;;;;;;;;;;24.10;75.60;;;;;;6094430;23;19925;-84
2022/06/22 15:18:48;;;;;;;;;;;24.10;75.50;;;;;;6124414;23;19921;-85
2022/06/22 15:21:22;;;;;;;;;;;24.00;76.40;;;;;;6109334;23;20365;-84
2022/06/22 15:24:00;;;;;;;;;;;24.00;78.10;;;;;;6113790;23;20250;-84